Time;durP1;ratioP1;P1;durP2;ratioP2;P2;SDS_P1;SDS_P2;PMS_P1;PMS_P2;Temp;Humidity;BMP_temperature;BMP_pressure;BME280_temperature;BME280_humidity;BME280_pressure;Samples;Min_cycle;Max_cycle;Signal;HPM_P1;HPM_P2
2022/12/02 00:00:05;;;;;;;25.20;22.80;;;0.60;99.90;;;;;;4221873;28;20089;-88
2022/12/02 00:02:28;;;;;;;25.55;23.15;;;0.60;99.90;;;;;;4233029;28;20050;-88
2022/12/02 00:04:56;;;;;;;25.65;22.85;;;0.50;99.90;;;;;;4213730;28;20097;-88
2022/12/02 00:07:19;;;;;;;24.27;22.20;;;0.40;99.90;;;;;;4217227;28;20389;-88
2022/12/02 00:09:42;;;;;;;22.90;20.95;;;0.20;99.90;;;;;;4225884;28;20398;-88
2022/12/02 00:12:32;;;;;;;24.17;21.70;;;0.10;99.90;;;;;;4222360;28;20364;-88
2022/12/02 00:14:59;;;;;;;21.92;20.02;;;-0.10;99.90;;;;;;4125441;28;20050;-88
2022/12/02 00:17:19;;;;;;;21.05;19.35;;;0.10;99.90;;;;;;4140031;28;20158;-87
2022/12/02 00:19:38;;;;;;;23.33;21.23;;;0.10;99.90;;;;;;4139906;28;20122;-88
2022/12/02 00:21:58;;;;;;;18.85;17.63;;;0.20;99.90;;;;;;4138738;28;20086;-88
2022/12/02 00:24:18;;;;;;;19.02;17.63;;;0.30;99.90;;;;;;4139733;28;20061;-88
2022/12/02 00:26:38;;;;;;;17.83;16.77;;;0.40;99.90;;;;;;4124680;28;20583;-88
2022/12/02 00:28:57;;;;;;;17.90;16.63;;;0.30;99.90;;;;;;4126805;28;20073;-88
2022/12/02 00:31:17;;;;;;;17.85;16.58;;;0.20;99.90;;;;;;4124788;28;20145;-88
2022/12/02 00:33:37;;;;;;;18.38;17.02;;;0.20;99.90;;;;;;4125972;28;20069;-88
2022/12/02 00:35:58;;;;;;;20.63;18.80;;;0.10;99.90;;;;;;4126197;28;20144;-88
2022/12/02 00:38:18;;;;;;;20.35;18.92;;;0.00;99.90;;;;;;4138669;28;20072;-88
2022/12/02 00:40:37;;;;;;;20.80;19.17;;;0.00;99.90;;;;;;4134256;28;20050;-88
2022/12/02 00:46:30;;;;;;;18.98;17.70;;;-0.10;99.90;;;;;;4140461;28;20050;-88
2022/12/02 00:48:19;;;;;;;20.50;18.67;;;-0.10;99.90;;;;;;4138892;28;20154;-88
2022/12/02 00:50:39;;;;;;;22.90;21.05;;;-0.30;99.90;;;;;;4159913;28;20047;-88
2022/12/02 00:52:59;;;;;;;25.42;22.80;;;-0.30;99.90;;;;;;4231191;28;20361;-88
2022/12/02 00:55:19;;;;;;;24.38;22.08;;;-0.40;99.90;;;;;;4225651;28;20453;-87
2022/12/02 00:57:39;;;;;;;23.80;21.88;;;-0.50;99.90;;;;;;4217307;28;20211;-87
2022/12/02 01:00:00;;;;;;;24.73;22.58;;;-0.50;99.90;;;;;;4217880;28;20373;-87
2022/12/02 01:02:21;;;;;;;24.33;22.00;;;-0.60;99.90;;;;;;4229445;28;20074;-88
2022/12/02 01:04:41;;;;;;;26.13;23.73;;;-0.60;99.90;;;;;;4230671;28;20047;-88
2022/12/02 01:07:01;;;;;;;26.30;24.25;;;-0.70;99.90;;;;;;4228155;28;20051;-88
2022/12/02 01:09:20;;;;;;;24.20;22.38;;;-0.70;99.90;;;;;;4231240;28;20094;-88
2022/12/02 01:11:40;;;;;;;23.27;21.48;;;-0.70;99.90;;;;;;4218951;28;20146;-87
2022/12/02 01:14:00;;;;;;;24.63;22.92;;;-0.70;99.90;;;;;;4233453;28;20068;-88
2022/12/02 01:16:19;;;;;;;28.00;25.73;;;-0.70;99.90;;;;;;4216589;28;20318;-88
2022/12/02 01:18:39;;;;;;;31.77;29.35;;;-0.70;99.90;;;;;;4219577;28;20370;-88
2022/12/02 01:20:59;;;;;;;31.83;29.33;;;-0.70;99.90;;;;;;4226683;28;20090;-88
2022/12/02 01:23:19;;;;;;;25.27;23.10;;;-0.60;99.90;;;;;;4232917;28;20046;-88
2022/12/02 01:25:39;;;;;;;22.70;21.10;;;-0.60;99.90;;;;;;4232066;28;20111;-87
2022/12/02 01:27:59;;;;;;;22.52;21.08;;;-0.60;99.90;;;;;;4218111;28;20043;-87
2022/12/02 01:30:19;;;;;;;21.45;19.52;;;-0.60;99.90;;;;;;4228956;28;20047;-87
2022/12/02 01:32:39;;;;;;;24.13;22.35;;;-0.60;99.90;;;;;;4218078;28;20411;-88
2022/12/02 01:34:58;;;;;;;19.45;18.08;;;-0.60;99.90;;;;;;4218036;28;20082;-88
2022/12/02 01:37:18;;;;;;;23.73;22.15;;;-0.50;99.90;;;;;;4226842;28;20431;-87
2022/12/02 01:39:37;;;;;;;26.50;24.77;;;-0.50;99.90;;;;;;4216965;28;20158;-87
2022/12/02 01:41:57;;;;;;;28.77;27.30;;;-0.50;99.90;;;;;;4217079;28;20081;-87
2022/12/02 01:44:18;;;;;;;30.05;28.35;;;-0.50;99.90;;;;;;4219677;28;20423;-87
2022/12/02 01:46:37;;;;;;;23.65;22.33;;;-0.50;99.90;;;;;;4221152;28;20390;-87
2022/12/02 01:48:58;;;;;;;22.60;20.80;;;-0.50;99.90;;;;;;4209326;28;20065;-87
2022/12/02 01:51:17;;;;;;;18.25;17.08;;;-0.50;99.90;;;;;;4221123;28;20051;-87
2022/12/02 01:53:38;;;;;;;17.13;16.02;;;-0.50;99.90;;;;;;4218611;28;20035;-87
2022/12/02 01:55:58;;;;;;;14.90;14.23;;;-0.50;99.90;;;;;;4216757;28;20048;-87
2022/12/02 01:58:26;;;;;;;17.63;16.35;;;-0.50;99.90;;;;;;4218431;28;20055;-87
2022/12/02 02:00:46;;;;;;;15.85;14.77;;;-0.60;99.90;;;;;;4229158;28;20047;-87
2022/12/02 02:03:06;;;;;;;14.23;13.73;;;-0.60;99.90;;;;;;4231583;28;20055;-87
2022/12/02 02:05:30;;;;;;;14.27;13.65;;;-0.60;99.90;;;;;;4217577;28;20117;-87
2022/12/02 02:07:53;;;;;;;17.45;16.33;;;-0.60;99.90;;;;;;4230863;28;20365;-87
2022/12/02 02:10:13;;;;;;;26.02;24.67;;;-0.60;99.90;;;;;;4219273;28;20075;-87
2022/12/02 02:12:35;;;;;;;24.60;23.40;;;-0.60;99.90;;;;;;4217361;28;20062;-87
2022/12/02 02:14:55;;;;;;;25.00;23.88;;;-0.60;99.90;;;;;;4229983;28;20089;-87
2022/12/02 02:17:15;;;;;;;24.48;23.17;;;-0.60;99.90;;;;;;4218111;28;20078;-87
2022/12/02 02:19:35;;;;;;;29.17;27.50;;;-0.60;99.90;;;;;;4229085;28;20114;-87
2022/12/02 02:21:56;;;;;;;25.45;24.15;;;-0.60;99.90;;;;;;4215198;28;20050;-87
2022/12/02 02:24:16;;;;;;;24.27;23.08;;;-0.60;99.90;;;;;;4218272;28;20067;-87
2022/12/02 02:26:35;;;;;;;23.38;22.17;;;-0.50;99.90;;;;;;4212491;28;20070;-87
2022/12/02 02:28:55;;;;;;;18.50;17.50;;;-0.50;99.90;;;;;;4216175;28;20062;-87
2022/12/02 02:31:16;;;;;;;20.45;19.45;;;-0.50;99.90;;;;;;4232193;28;20054;-87
2022/12/02 02:33:37;;;;;;;19.40;18.48;;;-0.60;99.90;;;;;;4220886;28;20043;-87
2022/12/02 02:35:57;;;;;;;22.35;21.10;;;-0.60;99.90;;;;;;4216218;28;20058;-87
2022/12/02 02:38:21;;;;;;;25.00;23.00;;;-0.80;99.90;;;;;;4214939;28;20058;-87
2022/12/02 02:40:42;;;;;;;22.38;20.55;;;-0.70;99.90;;;;;;4230984;28;20050;-87
2022/12/02 02:43:02;;;;;;;23.00;21.40;;;-0.90;99.90;;;;;;4214744;28;20040;-87
2022/12/02 02:45:25;;;;;;;23.45;21.52;;;-1.00;99.90;;;;;;4214932;28;20054;-87
2022/12/02 02:47:46;;;;;;;24.08;22.13;;;-1.20;99.90;;;;;;4231450;28;20225;-87
2022/12/02 02:50:06;;;;;;;21.63;20.00;;;-1.10;99.90;;;;;;4216010;28;20050;-87
2022/12/02 02:52:26;;;;;;;25.00;23.02;;;-1.20;99.90;;;;;;4232007;28;20038;-87
2022/12/02 02:54:46;;;;;;;23.77;21.73;;;-1.10;99.90;;;;;;4229860;28;20397;-86
2022/12/02 02:57:08;;;;;;;24.25;21.95;;;-1.10;99.90;;;;;;4214733;28;20047;-87
2022/12/02 02:59:28;;;;;;;27.73;25.15;;;-1.20;99.90;;;;;;4228182;28;20058;-87
2022/12/02 03:01:49;;;;;;;34.47;32.05;;;-1.30;99.90;;;;;;4215548;28;20262;-87
2022/12/02 03:04:12;;;;;;;44.78;42.10;;;-1.20;99.90;;;;;;4217033;28;20108;-87
2022/12/02 03:06:36;;;;;;;45.85;42.67;;;-1.20;99.90;;;;;;4228803;28;20049;-87
2022/12/02 03:08:57;;;;;;;43.67;41.22;;;-1.30;99.90;;;;;;4213070;28;20067;-87
2022/12/02 03:11:18;;;;;;;46.20;42.85;;;-1.20;99.90;;;;;;4217617;28;20094;-87
2022/12/02 03:13:40;;;;;;;43.45;40.60;;;-1.20;99.90;;;;;;4215666;28;20259;-87
2022/12/02 03:16:03;;;;;;;40.22;37.33;;;-1.10;99.90;;;;;;4216612;28;20106;-87
2022/12/02 03:18:23;;;;;;;;;;;-1.10;99.90;;;;;;4223539;28;20043;-87
2022/12/02 03:20:43;;;;;;;36.97;34.65;;;-1.10;99.90;;;;;;4215008;28;19989;-87
2022/12/02 03:23:04;;;;;;;35.15;32.83;;;-1.10;99.90;;;;;;4209642;28;20054;-87
2022/12/02 03:25:23;;;;;;;32.33;30.23;;;-1.00;99.90;;;;;;4215091;28;20242;-87
2022/12/02 03:27:44;;;;;;;22.33;20.55;;;-1.00;99.90;;;;;;4216034;28;20487;-87
2022/12/02 03:30:05;;;;;;;24.05;22.15;;;-1.00;99.90;;;;;;4218517;28;20077;-87
2022/12/02 03:32:25;;;;;;;27.48;24.95;;;-0.90;99.90;;;;;;4211884;28;20176;-86
2022/12/02 03:34:45;;;;;;;24.77;22.67;;;-0.90;99.90;;;;;;4216303;28;20086;-87
2022/12/02 03:37:05;;;;;;;24.83;22.98;;;-0.80;99.90;;;;;;4216492;28;20071;-87
2022/12/02 03:39:26;;;;;;;21.98;20.10;;;-0.80;99.90;;;;;;4217552;28;20070;-87
2022/12/02 03:41:46;;;;;;;24.58;22.55;;;-0.80;99.90;;;;;;4227320;28;20415;-87
2022/12/02 03:44:06;;;;;;;20.25;18.80;;;-0.80;99.90;;;;;;4216139;28;20098;-87
2022/12/02 03:46:28;;;;;;;18.75;17.55;;;-0.70;99.90;;;;;;4218687;28;20051;-87
2022/12/02 03:48:49;;;;;;;17.80;16.50;;;-0.70;99.90;;;;;;4220996;28;20329;-87
2022/12/02 03:51:11;;;;;;;17.55;16.55;;;-0.60;99.90;;;;;;4230146;28;20058;-87
2022/12/02 03:53:32;;;;;;;17.67;16.60;;;-0.60;99.90;;;;;;4218182;28;20047;-87
2022/12/02 03:55:52;;;;;;;16.88;16.13;;;-0.50;99.90;;;;;;4218672;28;20043;-87
2022/12/02 03:58:12;;;;;;;20.23;18.52;;;-0.50;99.90;;;;;;4218767;28;20054;-87
2022/12/02 04:00:32;;;;;;;24.65;22.77;;;-0.50;99.90;;;;;;4230545;28;20062;-87
2022/12/02 04:02:52;;;;;;;24.88;23.05;;;-0.60;99.90;;;;;;4232603;28;20321;-87
2022/12/02 04:05:13;;;;;;;24.67;22.90;;;-0.70;99.90;;;;;;4233408;28;20373;-87
2022/12/02 04:07:33;;;;;;;24.50;22.73;;;-0.70;99.90;;;;;;4214281;28;20451;-87
2022/12/02 04:09:53;;;;;;;23.65;22.05;;;-0.70;99.90;;;;;;4215545;28;20051;-87
2022/12/02 04:12:13;;;;;;;26.40;24.27;;;-0.80;99.90;;;;;;4221840;28;20172;-87
2022/12/02 04:14:33;;;;;;;28.98;26.98;;;-0.90;99.90;;;;;;4219825;28;20239;-87
2022/12/02 04:16:53;;;;;;;26.23;24.52;;;-0.90;99.90;;;;;;4216978;28;20052;-87
2022/12/02 04:19:14;;;;;;;23.88;22.33;;;-0.80;99.90;;;;;;4216015;28;20102;-87
2022/12/02 04:21:34;;;;;;;20.63;19.10;;;-0.70;99.90;;;;;;4219630;28;20047;-87
2022/12/02 04:23:54;;;;;;;21.73;20.02;;;-0.60;99.90;;;;;;4231099;28;20118;-87
2022/12/02 04:26:15;;;;;;;20.70;19.30;;;-0.60;99.90;;;;;;4217459;28;20074;-87
2022/12/02 04:28:35;;;;;;;19.15;18.08;;;-0.50;99.90;;;;;;4218453;28;20039;-87
2022/12/02 04:30:56;;;;;;;22.15;20.45;;;-0.50;99.90;;;;;;4217484;28;20070;-87
2022/12/02 04:33:16;;;;;;;20.23;18.73;;;-0.50;99.90;;;;;;4234289;28;20392;-87
2022/12/02 04:35:38;;;;;;;23.52;21.55;;;-0.50;99.90;;;;;;4231310;28;20051;-87
2022/12/02 04:37:57;;;;;;;26.77;25.08;;;-0.50;99.90;;;;;;4218824;28;20046;-87
2022/12/02 04:40:18;;;;;;;24.77;23.10;;;-0.50;99.90;;;;;;4217325;28;20300;-87
2022/12/02 04:42:38;;;;;;;22.92;21.23;;;-0.50;99.90;;;;;;4230140;28;20397;-87
2022/12/02 04:45:00;;;;;;;28.02;26.27;;;-0.40;99.90;;;;;;4229159;28;20269;-87
2022/12/02 04:47:20;;;;;;;27.88;26.25;;;-0.40;99.90;;;;;;4219952;28;20074;-87
2022/12/02 04:49:39;;;;;;;34.92;33.03;;;-0.40;99.90;;;;;;4231688;28;20047;-87
2022/12/02 04:51:59;;;;;;;37.63;35.42;;;-0.40;99.90;;;;;;4218882;28;20059;-87
2022/12/02 04:54:18;;;;;;;35.85;33.50;;;-0.50;99.90;;;;;;4231866;28;20050;-87
2022/12/02 04:56:38;;;;;;;37.47;35.38;;;-0.40;99.90;;;;;;4229437;28;20086;-87
2022/12/02 04:58:59;;;;;;;36.15;33.88;;;-0.50;99.90;;;;;;4224831;28;20062;-87
2022/12/02 05:01:19;;;;;;;33.67;31.58;;;-0.50;99.90;;;;;;4233944;28;20077;-87
2022/12/02 05:03:39;;;;;;;37.70;35.40;;;-0.50;99.90;;;;;;4229728;28;20063;-87
2022/12/02 05:05:59;;;;;;;37.78;35.47;;;-0.50;99.90;;;;;;4230952;28;20066;-87
2022/12/02 05:08:19;;;;;;;36.13;34.10;;;-0.50;99.90;;;;;;4217302;28;20063;-87
2022/12/02 05:10:40;;;;;;;37.08;34.88;;;-0.40;99.90;;;;;;4219073;28;20046;-87
2022/12/02 05:13:00;;;;;;;38.00;35.83;;;-0.40;99.90;;;;;;4233390;28;20070;-87
2022/12/02 05:15:20;;;;;;;36.95;35.05;;;-0.40;99.90;;;;;;4216800;28;20079;-87
2022/12/02 05:17:40;;;;;;;30.52;28.70;;;-0.30;99.90;;;;;;4228851;28;20453;-87
2022/12/02 05:20:02;;;;;;;19.83;18.58;;;-0.30;99.90;;;;;;4219464;28;20067;-87
2022/12/02 05:22:22;;;;;;;16.90;15.82;;;-0.20;99.90;;;;;;4216322;28;20051;-87
2022/12/02 05:24:42;;;;;;;20.23;18.65;;;-0.20;99.90;;;;;;4229158;28;20048;-87
2022/12/02 05:27:02;;;;;;;21.10;19.00;;;-0.10;99.90;;;;;;4221101;28;20048;-87
2022/12/02 05:29:22;;;;;;;19.70;18.30;;;-0.10;99.90;;;;;;4230279;28;20082;-87
2022/12/02 05:31:42;;;;;;;17.05;15.55;;;0.00;99.90;;;;;;4233166;28;20416;-87
2022/12/02 05:34:02;;;;;;;18.02;16.50;;;0.00;99.90;;;;;;4217485;28;20042;-87
2022/12/02 05:36:22;;;;;;;16.40;15.30;;;0.00;99.90;;;;;;4235358;28;20055;-87
2022/12/02 05:38:42;;;;;;;15.95;15.15;;;0.00;99.90;;;;;;4224151;28;20043;-87
2022/12/02 05:41:02;;;;;;;17.98;16.67;;;0.00;99.90;;;;;;4233646;28;20118;-87
2022/12/02 05:43:25;;;;;;;18.65;17.33;;;0.00;99.90;;;;;;4217653;28;20047;-87
2022/12/02 05:45:45;;;;;;;19.83;18.23;;;0.00;99.90;;;;;;4216590;28;20434;-87
2022/12/02 05:48:09;;;;;;;17.15;16.25;;;-0.10;99.90;;;;;;4217924;28;20139;-87
2022/12/02 05:50:31;;;;;;;29.98;27.77;;;0.00;99.90;;;;;;4223137;28;20046;-87
2022/12/02 05:52:51;;;;;;;32.53;29.95;;;-0.10;99.90;;;;;;4215955;28;20053;-87
2022/12/02 05:55:15;;;;;;;28.77;26.52;;;-0.10;99.90;;;;;;4218480;28;20054;-87
2022/12/02 05:57:35;;;;;;;27.52;24.83;;;-0.10;99.90;;;;;;4217270;28;20070;-87
2022/12/02 06:00:22;;;;;;;30.48;27.48;;;-0.20;99.90;;;;;;4218959;28;20239;-87
2022/12/02 06:02:51;;;;;;;25.77;23.52;;;-0.10;99.90;;;;;;4213408;28;20070;-87
2022/12/02 06:05:25;;;;;;;24.10;22.20;;;0.00;99.90;;;;;;4231552;28;20043;-87
2022/12/02 06:07:46;;;;;;;21.02;19.42;;;0.00;99.90;;;;;;4223547;28;20115;-87
2022/12/02 06:10:27;;;;;;;23.55;21.80;;;0.00;99.90;;;;;;4216627;28;20052;-87
2022/12/02 06:12:48;;;;;;;24.60;22.05;;;0.10;99.90;;;;;;4211772;28;20070;-87
2022/12/02 06:15:13;;;;;;;30.42;27.45;;;0.10;99.90;;;;;;4215280;28;20055;-87
2022/12/02 06:17:33;;;;;;;33.65;30.88;;;0.00;99.90;;;;;;4231946;28;20051;-88
2022/12/02 06:19:55;;;;;;;42.65;39.42;;;0.00;99.90;;;;;;4215650;28;20079;-88
2022/12/02 06:22:23;;;;;;;38.22;35.63;;;0.00;99.90;;;;;;4224287;28;20401;-88
2022/12/02 06:24:43;;;;;;;36.45;33.55;;;0.10;99.90;;;;;;4235156;28;20053;-89
2022/12/02 06:27:04;;;;;;;22.38;20.23;;;0.10;99.90;;;;;;4216487;28;20090;-88
2022/12/02 06:29:26;;;;;;;25.33;22.77;;;0.10;99.90;;;;;;4232185;28;20302;-89
2022/12/02 06:31:46;;;;;;;16.33;15.20;;;0.20;99.90;;;;;;4215549;28;20043;-89
2022/12/02 06:34:40;;;;;;;16.20;15.27;;;0.20;99.90;;;;;;4231036;28;20094;-89
2022/12/02 06:37:08;;;;;;;15.23;14.43;;;0.20;99.90;;;;;;4211682;28;20071;-88
2022/12/02 06:39:28;;;;;;;15.05;14.43;;;0.20;99.90;;;;;;4212732;28;20529;-88
2022/12/02 06:41:48;;;;;;;13.73;13.25;;;0.30;99.90;;;;;;4218759;28;20413;-89
2022/12/02 06:47:32;;;;;;;24.67;23.10;;;0.30;99.90;;;;;;4223114;28;20047;-88
2022/12/02 06:49:52;;;;;;;27.50;25.80;;;0.40;99.90;;;;;;4222352;28;20050;-88
2022/12/02 06:52:20;;;;;;;19.08;18.13;;;0.40;99.90;;;;;;4228112;28;20365;-88
2022/12/02 06:54:43;;;;;;;24.17;22.95;;;0.40;99.90;;;;;;4227929;28;20362;-88
2022/12/02 06:57:07;;;;;;;17.50;16.70;;;0.50;99.90;;;;;;4216583;28;20051;-88
2022/12/02 06:59:28;;;;;;;18.67;17.45;;;0.50;99.90;;;;;;4234101;28;20046;-88
2022/12/02 07:01:51;;;;;;;15.60;14.70;;;0.50;99.90;;;;;;4229686;28;20051;-88
2022/12/02 07:04:44;;;;;;;19.30;18.38;;;0.50;99.90;;;;;;4213833;28;20078;-88
2022/12/02 07:07:27;;;;;;;22.38;20.85;;;0.60;99.90;;;;;;4222068;28;20047;-87
2022/12/02 07:10:00;;;;;;;24.52;22.75;;;0.50;99.90;;;;;;4228083;28;20070;-87
2022/12/02 07:12:22;;;;;;;;;;;0.50;99.90;;;;;;4231651;28;20072;-87
2022/12/02 07:14:43;;;;;;;22.33;20.60;;;0.50;99.90;;;;;;4215333;28;19966;-88
2022/12/02 07:17:20;;;;;;;22.85;21.35;;;0.60;99.90;;;;;;4230378;28;20047;-87
2022/12/02 07:19:44;;;;;;;20.90;19.35;;;0.60;99.90;;;;;;4226461;28;20055;-88
2022/12/02 07:22:30;;;;;;;18.42;16.75;;;0.60;99.90;;;;;;4216901;28;20113;-88
2022/12/02 07:25:15;;;;;;;16.42;15.52;;;0.60;99.90;;;;;;4228981;28;20070;-88
2022/12/02 07:27:39;;;;;;;13.70;12.90;;;0.50;99.90;;;;;;4213880;28;20084;-87
2022/12/02 07:30:00;;;;;;;16.02;15.18;;;0.50;99.90;;;;;;4226287;28;20360;-88
2022/12/02 07:32:21;;;;;;;14.77;13.40;;;0.60;99.90;;;;;;4229384;28;20094;-87
2022/12/02 07:34:40;;;;;;;14.82;14.20;;;0.70;99.90;;;;;;4229963;28;20085;-87
2022/12/02 07:37:00;;;;;;;18.38;16.95;;;0.80;99.90;;;;;;4229937;28;20050;-88
2022/12/02 07:39:20;;;;;;;16.17;15.18;;;0.80;99.90;;;;;;4215006;28;20388;-87
2022/12/02 07:41:40;;;;;;;19.00;17.23;;;0.80;99.90;;;;;;4230148;28;20227;-87
2022/12/02 07:44:00;;;;;;;23.55;21.65;;;0.80;99.90;;;;;;4228002;28;20090;-88
2022/12/02 07:46:20;;;;;;;20.58;18.90;;;0.80;99.90;;;;;;4212985;28;20101;-87
2022/12/02 07:48:40;;;;;;;23.20;21.00;;;0.80;99.90;;;;;;4222692;28;20047;-87
2022/12/02 07:51:00;;;;;;;34.58;26.60;;;0.80;99.90;;;;;;4213025;28;20365;-87
2022/12/02 07:53:20;;;;;;;68.45;44.05;;;0.90;99.90;;;;;;4232344;28;20239;-87
2022/12/02 07:55:41;;;;;;;38.53;27.67;;;0.90;99.90;;;;;;4231227;28;20058;-88
2022/12/02 07:58:00;;;;;;;27.90;24.90;;;0.90;99.90;;;;;;4225707;28;20040;-87
2022/12/02 08:00:21;;;;;;;28.15;25.50;;;0.90;99.90;;;;;;4211010;28;20047;-88
2022/12/02 08:02:41;;;;;;;28.27;25.67;;;0.90;99.90;;;;;;4224597;28;20058;-87
2022/12/02 08:05:01;;;;;;;26.90;23.92;;;1.00;99.90;;;;;;4215811;28;20047;-87
2022/12/02 08:07:21;;;;;;;28.95;26.00;;;1.00;99.90;;;;;;4218013;28;20051;-87
2022/12/02 08:09:41;;;;;;;29.48;26.38;;;1.10;99.90;;;;;;4228826;28;20099;-87
2022/12/02 08:12:01;;;;;;;27.25;24.38;;;1.10;99.90;;;;;;4225897;28;20066;-87
2022/12/02 08:14:20;;;;;;;35.08;29.50;;;1.00;99.90;;;;;;4216813;28;20056;-87
2022/12/02 08:16:40;;;;;;;44.72;33.90;;;1.10;99.90;;;;;;4214254;28;20056;-88
2022/12/02 08:19:00;;;;;;;30.35;27.63;;;1.10;99.90;;;;;;4226743;28;20051;-88
2022/12/02 08:21:21;;;;;;;32.30;28.90;;;1.10;99.90;;;;;;4233668;28;20086;-88
2022/12/02 08:23:40;;;;;;;30.42;25.38;;;1.20;99.90;;;;;;4228994;28;20231;-88
2022/12/02 08:26:00;;;;;;;26.17;23.95;;;1.20;99.90;;;;;;4217331;28;20042;-88
2022/12/02 08:28:20;;;;;;;25.40;23.10;;;1.20;99.90;;;;;;4226314;28;20109;-87
2022/12/02 08:30:40;;;;;;;26.85;24.15;;;1.20;99.90;;;;;;4220209;28;20066;-88
2022/12/02 08:33:00;;;;;;;29.17;26.15;;;1.20;99.90;;;;;;4212745;28;20386;-88
2022/12/02 08:35:20;;;;;;;27.55;24.02;;;1.20;99.90;;;;;;4216170;28;20443;-88
2022/12/02 08:37:40;;;;;;;33.70;29.52;;;1.20;99.90;;;;;;4220961;28;20284;-86
2022/12/02 08:40:01;;;;;;;34.58;27.98;;;1.30;99.90;;;;;;4231462;28;20322;-87
2022/12/02 08:42:21;;;;;;;26.90;24.05;;;1.30;99.90;;;;;;4220026;28;20429;-89
2022/12/02 08:44:41;;;;;;;18.00;16.48;;;1.40;99.90;;;;;;4217954;28;20082;-88
2022/12/02 08:47:01;;;;;;;15.48;14.60;;;1.40;99.90;;;;;;4218058;28;20043;-88
2022/12/02 08:49:21;;;;;;;20.60;18.83;;;1.40;99.90;;;;;;4219582;28;20083;-88
2022/12/02 08:51:41;;;;;;;23.95;21.73;;;1.40;99.90;;;;;;4217893;28;20271;-88
2022/12/02 08:54:01;;;;;;;23.25;21.27;;;1.50;99.90;;;;;;4217746;28;20043;-88
2022/12/02 08:56:21;;;;;;;24.42;22.30;;;1.60;99.90;;;;;;4227296;28;20063;-88
2022/12/02 08:58:40;;;;;;;17.52;16.17;;;1.70;99.90;;;;;;4234126;28;20066;-88
2022/12/02 09:01:00;;;;;;;21.13;19.40;;;1.60;99.90;;;;;;4229168;28;20046;-88
2022/12/02 09:03:20;;;;;;;27.40;23.25;;;1.70;99.90;;;;;;4230553;28;20096;-88
2022/12/02 09:05:40;;;;;;;36.53;32.22;;;1.70;99.90;;;;;;4215070;28;20295;-89
2022/12/02 09:08:00;;;;;;;46.13;36.03;;;1.70;99.90;;;;;;4227435;28;20035;-88
2022/12/02 09:10:20;;;;;;;48.10;37.30;;;1.70;99.90;;;;;;4218779;28;20146;-88
2022/12/02 09:12:41;;;;;;;46.75;34.10;;;1.70;99.90;;;;;;4225135;28;20354;-89
2022/12/02 09:15:01;;;;;;;69.63;50.75;;;1.70;99.90;;;;;;4216774;28;20067;-89
2022/12/02 09:17:21;;;;;;;37.67;33.22;;;1.70;99.90;;;;;;4233090;28;20063;-89
2022/12/02 09:19:40;;;;;;;33.67;29.55;;;1.70;99.90;;;;;;4216794;28;20048;-89
2022/12/02 09:22:00;;;;;;;59.47;51.42;;;1.70;99.90;;;;;;4232964;28;20231;-89
2022/12/02 09:24:19;;;;;;;40.63;36.78;;;1.60;99.90;;;;;;4212515;28;20055;-89
2022/12/02 09:26:39;;;;;;;32.05;29.52;;;1.70;99.90;;;;;;4218026;28;20059;-88
2022/12/02 09:28:59;;;;;;;29.80;27.50;;;1.60;99.90;;;;;;4232254;28;20338;-88
2022/12/02 09:31:19;;;;;;;35.45;31.10;;;1.60;99.90;;;;;;4216648;28;20112;-89
2022/12/02 09:33:39;;;;;;;37.22;33.58;;;1.70;99.90;;;;;;4231597;28;20524;-88
2022/12/02 09:35:59;;;;;;;21.75;19.38;;;1.80;99.90;;;;;;4212955;28;20093;-88
2022/12/02 09:38:19;;;;;;;30.33;20.20;;;1.80;99.90;;;;;;4220157;28;20365;-88
2022/12/02 09:40:39;;;;;;;19.17;17.60;;;1.90;99.90;;;;;;4220183;28;20101;-88
2022/12/02 09:43:01;;;;;;;16.90;15.27;;;1.90;99.90;;;;;;4222984;28;20051;-88
2022/12/02 09:45:21;;;;;;;14.30;13.10;;;2.00;99.90;;;;;;4231893;28;20046;-89
2022/12/02 09:47:41;;;;;;;15.23;13.65;;;2.00;99.90;;;;;;4211952;28;20334;-88
2022/12/02 09:50:02;;;;;;;22.77;18.75;;;2.10;99.90;;;;;;4217189;28;20060;-87
2022/12/02 09:52:24;;;;;;;34.22;20.80;;;2.20;99.90;;;;;;4218311;28;20050;-88
2022/12/02 09:54:46;;;;;;;22.38;17.65;;;2.20;99.90;;;;;;4232053;28;20047;-88
2022/12/02 09:57:13;;;;;;;15.80;14.45;;;2.20;99.90;;;;;;4216087;28;20112;-89
2022/12/02 09:59:32;;;;;;;18.55;16.98;;;2.30;99.90;;;;;;4226939;28;20126;-89
2022/12/02 10:01:56;;;;;;;19.95;18.20;;;2.30;99.90;;;;;;4226686;28;20048;-88
2022/12/02 10:04:20;;;;;;;40.53;26.27;;;2.30;99.90;;;;;;4229330;28;20042;-89
2022/12/02 10:06:40;;;;;;;41.05;28.02;;;2.40;99.90;;;;;;4226736;28;20051;-89
2022/12/02 10:09:01;;;;;;;37.17;27.70;;;2.40;99.90;;;;;;4215614;28;20047;-88
2022/12/02 10:11:28;;;;;;;39.33;26.35;;;2.40;99.90;;;;;;4215333;28;20051;-88
2022/12/02 10:13:48;;;;;;;31.92;25.15;;;2.40;99.90;;;;;;4212268;28;20240;-88
2022/12/02 10:16:12;;;;;;;22.88;20.83;;;2.50;99.90;;;;;;4217631;28;20108;-89
2022/12/02 10:18:33;;;;;;;27.35;21.48;;;2.50;99.90;;;;;;4216606;28;20047;-88
2022/12/02 10:20:52;;;;;;;30.25;22.50;;;2.60;99.90;;;;;;4225837;28;20086;-88
2022/12/02 10:23:17;;;;;;;29.00;25.65;;;2.70;99.90;;;;;;4230927;28;20043;-88
2022/12/02 10:25:41;;;;;;;27.02;24.13;;;2.90;99.90;;;;;;4230083;28;20380;-89
2022/12/02 10:28:01;;;;;;;20.95;18.85;;;3.00;99.90;;;;;;4230532;28;20054;-88
2022/12/02 10:30:24;;;;;;;32.88;28.95;;;3.20;99.90;;;;;;4213512;28;20093;-89
2022/12/02 10:33:00;;;;;;;41.92;30.35;;;3.30;99.90;;;;;;4211379;28;20049;-89
2022/12/02 10:35:20;;;;;;;33.33;28.13;;;3.30;99.90;;;;;;4231172;28;20073;-89
2022/12/02 10:37:40;;;;;;;31.45;27.02;;;3.30;99.90;;;;;;4212648;28;20058;-88
2022/12/02 10:40:22;;;;;;;32.53;27.35;;;3.30;99.90;;;;;;4230764;28;20443;-89
2022/12/02 10:42:43;;;;;;;24.35;21.75;;;3.30;99.90;;;;;;4215867;28;20048;-90
2022/12/02 10:45:19;;;;;;;26.27;23.50;;;3.10;99.90;;;;;;4222087;28;20043;-88
2022/12/02 10:47:39;;;;;;;24.73;22.23;;;3.30;99.90;;;;;;4230678;28;20047;-89
2022/12/02 10:49:59;;;;;;;19.75;17.80;;;3.40;99.90;;;;;;4228176;28;20093;-88
2022/12/02 10:52:37;;;;;;;21.45;19.20;;;3.40;99.90;;;;;;4229337;28;20073;-89
2022/12/02 10:55:05;;;;;;;21.05;18.92;;;3.50;99.90;;;;;;4217124;28;20417;-89
2022/12/02 10:57:30;;;;;;;18.75;16.85;;;3.70;99.90;;;;;;4217735;28;20047;-88
2022/12/02 10:59:52;;;;;;;19.83;17.80;;;3.70;99.90;;;;;;4224177;28;20120;-88
2022/12/02 11:02:50;;;;;;;23.30;20.85;;;3.70;99.90;;;;;;4231438;28;20097;-89
2022/12/02 11:05:22;;;;;;;20.95;18.92;;;3.80;99.90;;;;;;4171054;28;20159;-88
2022/12/02 11:07:51;;;;;;;15.65;14.15;;;3.90;99.90;;;;;;4170864;28;20068;-89
2022/12/02 11:10:20;;;;;;;14.27;13.20;;;4.00;99.90;;;;;;4169031;28;20080;-89
2022/12/02 11:12:51;;;;;;;18.35;16.33;;;4.10;99.90;;;;;;4170263;28;20117;-89
2022/12/02 11:15:36;;;;;;;20.67;15.27;;;4.10;99.90;;;;;;4170123;28;20053;-89
2022/12/02 11:17:56;;;;;;;17.17;15.20;;;4.20;99.90;;;;;;4156875;28;20157;-89
2022/12/02 11:20:30;;;;;;;18.65;17.15;;;4.10;99.90;;;;;;4156060;28;20057;-89
2022/12/02 11:22:59;;;;;;;18.02;16.42;;;4.30;99.90;;;;;;4156609;28;20057;-89
2022/12/02 11:25:46;;;;;;;12.30;11.50;;;4.40;99.90;;;;;;4148051;28;20058;-89
2022/12/02 11:28:17;;;;;;;13.80;12.82;;;4.40;99.90;;;;;;4149818;28;20092;-88
2022/12/02 11:30:38;;;;;;;12.52;11.73;;;4.50;99.90;;;;;;4156377;28;20049;-89
2022/12/02 11:32:57;;;;;;;11.70;11.18;;;4.50;99.90;;;;;;4156578;28;20041;-89
2022/12/02 11:35:55;;;;;;;17.70;16.33;;;4.70;99.90;;;;;;4168804;28;20048;-89
2022/12/02 11:38:21;;;;;;;12.05;11.45;;;4.90;99.90;;;;;;4152571;28;20120;-88
2022/12/02 11:40:41;;;;;;;14.30;13.07;;;5.10;99.90;;;;;;4190599;28;20086;-89
2022/12/02 11:43:46;;;;;;;12.63;11.75;;;5.20;99.90;;;;;;4216916;28;20066;-89
2022/12/02 11:46:07;;;;;;;21.63;15.48;;;5.40;99.90;;;;;;4161460;28;20061;-90
2022/12/02 11:48:27;;;;;;;15.00;13.80;;;5.60;99.90;;;;;;4161123;28;20344;-89
2022/12/02 11:50:47;;;;;;;14.32;12.98;;;5.70;99.90;;;;;;4162021;28;20093;-89
2022/12/02 11:53:12;;;;;;;19.65;17.83;;;5.80;99.90;;;;;;4162005;28;20048;-89
2022/12/02 11:55:38;;;;;;;18.40;16.88;;;5.90;99.90;;;;;;4156109;28;20145;-88
2022/12/02 11:57:59;;;;;;;21.88;19.67;;;6.10;99.90;;;;;;4165562;28;20072;-88
2022/12/02 12:00:27;;;;;;;18.02;16.35;;;6.10;99.90;;;;;;4155313;28;20117;-89
2022/12/02 12:03:17;;;;;;;23.10;20.98;;;6.20;99.90;;;;;;4166925;28;20072;-90
2022/12/02 12:05:39;;;;;;;31.67;24.07;;;6.30;99.90;;;;;;4167885;28;20064;-88
2022/12/02 12:07:59;;;;;;;28.40;25.40;;;6.50;99.90;;;;;;4163875;28;20560;-89
2022/12/02 12:10:34;;;;;;;25.15;21.95;;;6.60;99.90;;;;;;4157569;28;20053;-89
2022/12/02 12:13:15;;;;;;;22.00;19.70;;;6.80;99.90;;;;;;4158708;28;20061;-89
2022/12/02 12:15:54;;;;;;;40.65;30.30;;;6.80;99.90;;;;;;4163613;28;20122;-89